Time;durP1;ratioP1;P1;durP2;ratioP2;P2;SDS_P1;SDS_P2;PMS_P1;PMS_P2;Temp;Humidity;BMP_temperature;BMP_pressure;BME280_temperature;BME280_humidity;BME280_pressure;Samples;Min_cycle;Max_cycle;Signal;HPM_P1;HPM_P2
2024/05/02 00:01:36;;;;;;;5.35;2.47;;;;;;;17.60;57.23;94712.47;5344588;26;20028;-62
2024/05/02 00:04:02;;;;;;;2.63;2.20;;;;;;;17.62;57.62;94710.22;5340577;26;20020;-62
2024/05/02 00:06:27;;;;;;;3.35;2.38;;;;;;;17.50;57.63;94702.22;5340719;26;20009;-62
2024/05/02 00:08:52;;;;;;;2.55;2.08;;;;;;;17.54;57.34;94703.13;5337896;26;20531;-62
2024/05/02 00:11:18;;;;;;;3.33;2.10;;;;;;;17.61;57.21;94700.66;5340854;26;20024;-62
2024/05/02 00:13:43;;;;;;;3.33;2.20;;;;;;;17.56;56.93;94700.13;5340436;26;20085;-62
2024/05/02 00:16:08;;;;;;;2.93;2.40;;;;;;;17.49;57.43;94698.00;5339380;26;20910;-62
2024/05/02 00:18:33;;;;;;;5.05;2.28;;;;;;;17.25;57.42;94690.78;5334252;26;20280;-62
2024/05/02 00:20:59;;;;;;;4.40;2.37;;;;;;;17.32;57.18;94700.88;5339617;26;20009;-62
2024/05/02 00:23:24;;;;;;;4.63;2.17;;;;;;;17.06;57.27;94693.97;5340538;26;20240;-62
2024/05/02 00:25:49;;;;;;;2.13;1.90;;;;;;;17.39;57.59;94687.75;5340240;26;20255;-62
2024/05/02 00:28:14;;;;;;;3.22;1.92;;;;;;;17.45;57.67;94686.47;5340393;26;20754;-62
2024/05/02 00:30:40;;;;;;;3.45;2.13;;;;;;;17.48;57.32;94683.09;5341063;26;20017;-62
2024/05/02 00:33:05;;;;;;;3.33;2.03;;;;;;;17.18;58.05;94685.97;5340063;26;20009;-62
2024/05/02 00:35:30;;;;;;;7.63;2.10;;;;;;;16.84;58.52;94675.72;5339522;26;20083;-62
2024/05/02 00:37:56;;;;;;;3.05;2.30;;;;;;;16.62;58.32;94682.94;5340472;26;20244;-62
2024/05/02 00:40:21;;;;;;;3.38;2.42;;;;;;;16.74;59.78;94682.22;5339984;26;20792;-62
2024/05/02 00:42:50;;;;;;;4.15;2.03;;;;;;;16.87;58.29;94675.06;5341196;26;20432;-62
2024/05/02 00:45:16;;;;;;;5.30;2.17;;;;;;;16.90;57.76;94669.06;5338832;26;20591;-62
2024/05/02 00:47:42;;;;;;;3.75;2.20;;;;;;;16.55;59.52;94673.91;5340718;26;20024;-62
2024/05/02 00:50:08;;;;;;;5.45;1.98;;;;;;;16.51;59.90;94675.69;5339442;26;20489;-62
2024/05/02 00:52:34;;;;;;;3.22;1.95;;;;;;;16.43;59.67;94671.97;5341194;26;20017;-62
2024/05/02 00:55:00;;;;;;;4.68;2.47;;;;;;;16.62;59.02;94677.63;5339663;26;20059;-62
2024/05/02 00:57:26;;;;;;;3.17;2.08;;;;;;;16.06;60.19;94676.38;5337607;26;20016;-62
2024/05/02 00:59:51;;;;;;;2.63;1.80;;;;;;;16.32;60.19;94670.84;5337275;26;20025;-62
2024/05/02 01:02:16;;;;;;;5.22;2.38;;;;;;;16.36;58.96;94663.75;5340813;26;20391;-62
2024/05/02 01:04:42;;;;;;;5.23;2.50;;;;;;;16.63;58.39;94670.41;5340679;26;20360;-62
2024/05/02 01:07:07;;;;;;;6.03;2.30;;;;;;;16.51;59.74;94663.13;5339654;26;20337;-62
2024/05/02 01:09:32;;;;;;;5.97;2.03;;;;;;;16.62;59.92;94674.97;5329934;26;20009;-62
2024/05/02 01:11:58;;;;;;;5.63;2.55;;;;;;;16.05;61.44;94667.63;5337815;26;20012;-62
2024/05/02 01:14:23;;;;;;;2.38;1.90;;;;;;;16.09;61.45;94673.81;5340866;26;20013;-62
2024/05/02 01:16:48;;;;;;;3.03;2.00;;;;;;;16.39;60.98;94660.44;5339682;26;20009;-62
2024/05/02 01:19:14;;;;;;;4.37;2.43;;;;;;;16.20;59.81;94668.91;5340636;26;20005;-62
2024/05/02 01:21:39;;;;;;;2.78;1.88;;;;;;;15.92;62.35;94663.31;5336436;26;20353;-62
2024/05/02 01:24:04;;;;;;;7.40;2.45;;;;;;;15.88;61.98;94671.16;5342355;26;20456;-62
2024/05/02 01:26:31;;;;;;;4.60;2.30;;;;;;;15.73;62.04;94673.63;5339411;26;20068;-62
2024/05/02 01:28:56;;;;;;;7.50;2.47;;;;;;;15.94;60.62;94670.97;5340130;26;20008;-62
2024/05/02 01:31:21;;;;;;;4.23;2.23;;;;;;;16.15;61.31;94661.13;5340126;26;20019;-62
2024/05/02 01:33:46;;;;;;;6.03;2.55;;;;;;;16.06;61.26;94669.16;5339954;26;20300;-62
2024/05/02 01:36:12;;;;;;;4.67;2.67;;;;;;;15.75;61.22;94664.19;5337803;26;20026;-62
2024/05/02 01:38:37;;;;;;;4.38;2.15;;;;;;;16.01;60.72;94656.06;5338219;26;20797;-62
2024/05/02 01:41:03;;;;;;;3.13;2.20;;;;;;;16.12;60.23;94657.22;5339203;26;20028;-62
2024/05/02 01:43:28;;;;;;;2.35;2.10;;;;;;;15.99;61.16;94660.13;5339901;26;20091;-62
2024/05/02 01:45:53;;;;;;;3.03;2.25;;;;;;;15.92;62.38;94652.69;5339937;26;20027;-62
2024/05/02 01:48:19;;;;;;;3.58;2.20;;;;;;;15.78;61.21;94652.16;5334386;26;20076;-62
2024/05/02 01:50:44;;;;;;;3.67;2.33;;;;;;;16.10;62.15;94646.13;5340130;26;20077;-62
2024/05/02 01:53:13;;;;;;;6.10;2.38;;;;;;;15.90;62.18;94649.53;5339384;26;20023;-62
2024/05/02 01:55:40;;;;;;;10.60;2.50;;;;;;;16.08;60.29;94645.66;5339383;26;20523;-62
2024/05/02 01:58:07;;;;;;;3.08;2.03;;;;;;;16.10;60.58;94648.78;5339469;26;20028;-62
2024/05/02 02:00:32;;;;;;;6.45;2.67;;;;;;;15.98;62.45;94650.59;5339837;26;20013;-62
2024/05/02 02:02:57;;;;;;;5.72;1.90;;;;;;;15.94;61.93;94642.47;5339772;26;20019;-62
2024/05/02 02:05:23;;;;;;;3.95;2.22;;;;;;;15.96;61.75;94645.63;5339538;26;20049;-62
2024/05/02 02:07:48;;;;;;;2.93;2.10;;;;;;;15.93;62.28;94646.25;5339387;26;20001;-62
2024/05/02 02:10:13;;;;;;;4.25;2.10;;;;;;;15.79;62.52;94643.06;5338846;26;20251;-62
2024/05/02 02:12:38;;;;;;;5.25;2.20;;;;;;;15.66;62.61;94642.19;5340137;26;20020;-62
2024/05/02 02:15:04;;;;;;;2.83;1.98;;;;;;;15.55;63.64;94643.66;5338601;26;20017;-62
2024/05/02 02:17:29;;;;;;;3.78;2.08;;;;;;;15.69;63.33;94638.13;5339688;26;20005;-62
2024/05/02 02:19:55;;;;;;;2.55;1.70;;;;;;;15.77;62.63;94646.06;5338745;26;20023;-62
2024/05/02 02:22:20;;;;;;;3.50;2.17;;;;;;;15.56;62.52;94645.97;5333021;26;20005;-62
2024/05/02 02:24:45;;;;;;;2.65;1.80;;;;;;;15.72;62.36;94637.50;5339639;26;20020;-62
2024/05/02 02:27:11;;;;;;;4.25;2.10;;;;;;;15.41;63.76;94630.59;5338491;26;20012;-62
2024/05/02 02:29:37;;;;;;;3.45;1.63;;;;;;;15.55;63.57;94631.16;5339722;26;20028;-62
2024/05/02 02:32:03;;;;;;;4.63;2.55;;;;;;;15.48;63.83;94622.91;5337694;26;20049;-62
2024/05/02 02:34:28;;;;;;;2.30;1.80;;;;;;;15.53;62.32;94620.06;5339918;26;20013;-62
2024/05/02 02:36:53;;;;;;;2.97;2.20;;;;;;;15.31;64.37;94617.69;5338896;26;20023;-62
2024/05/02 02:39:18;;;;;;;3.13;2.17;;;;;;;15.28;64.46;94618.31;5338965;26;20013;-62
2024/05/02 02:41:44;;;;;;;3.47;2.05;;;;;;;15.40;62.51;94613.09;5338425;26;20013;-62
2024/05/02 02:44:09;;;;;;;2.85;2.22;;;;;;;15.49;63.72;94611.16;5339196;26;20005;-62
2024/05/02 02:46:34;;;;;;;2.63;2.00;;;;;;;15.45;62.94;94607.59;5338334;26;20074;-62
2024/05/02 02:49:00;;;;;;;3.85;2.22;;;;;;;15.51;62.49;94608.97;5338954;26;20009;-62
2024/05/02 02:51:25;;;;;;;2.72;2.17;;;;;;;15.47;63.50;94602.72;5340317;26;20016;-62
2024/05/02 02:53:50;;;;;;;11.23;2.33;;;;;;;15.39;62.21;94598.25;5341333;26;20090;-62
2024/05/02 02:56:15;;;;;;;2.85;2.03;;;;;;;15.70;61.39;94607.78;5341991;26;20013;-62
2024/05/02 02:58:42;;;;;;;3.17;1.95;;;;;;;15.59;62.46;94596.72;5341618;26;20009;-62
2024/05/02 03:01:07;;;;;;;2.55;2.00;;;;;;;15.42;63.58;94602.13;5343843;26;20036;-62
2024/05/02 03:03:32;;;;;;;7.20;2.03;;;;;;;15.35;62.04;94603.44;5339819;26;20511;-62
2024/05/02 03:05:58;;;;;;;3.17;1.80;;;;;;;15.53;62.98;94598.78;5341382;26;20300;-62
2024/05/02 03:08:24;;;;;;;2.78;2.20;;;;;;;15.60;63.64;94598.28;5341345;26;20292;-62
2024/05/02 03:10:49;;;;;;;3.58;2.30;;;;;;;15.63;61.85;94592.31;5341965;26;20329;-62
2024/05/02 03:13:14;;;;;;;2.78;1.92;;;;;;;15.80;61.65;94589.53;5340955;26;20048;-62
2024/05/02 03:15:40;;;;;;;3.50;2.47;;;;;;;15.77;61.17;94597.41;5340223;26;20013;-62
2024/05/02 03:18:05;;;;;;;3.23;2.23;;;;;;;15.73;61.85;94588.53;5341875;26;20009;-62
2024/05/02 03:20:31;;;;;;;3.33;1.83;;;;;;;15.52;62.77;94589.28;5341547;26;20742;-62
2024/05/02 03:22:56;;;;;;;4.90;2.35;;;;;;;15.49;63.66;94581.16;5335135;26;20032;-62
2024/05/02 03:25:21;;;;;;;4.88;2.38;;;;;;;15.60;62.52;94584.97;5362244;26;20005;-62
2024/05/02 03:27:46;;;;;;;3.00;2.00;;;;;;;15.33;63.82;94578.25;5342327;26;20009;-62
2024/05/02 03:30:12;;;;;;;6.10;2.30;;;;;;;15.52;62.32;94570.66;5340264;26;20243;-62
2024/05/02 03:32:37;;;;;;;4.65;2.63;;;;;;;15.60;63.14;94575.13;5336158;26;20243;-62
2024/05/02 03:35:03;;;;;;;3.65;2.33;;;;;;;15.86;63.24;94579.50;5341272;26;20004;-62
2024/05/02 03:37:29;;;;;;;6.50;2.60;;;;;;;15.91;62.19;94571.31;5342066;26;20013;-62
2024/05/02 03:39:54;;;;;;;5.50;2.20;;;;;;;15.59;63.59;94568.25;5341055;26;20455;-62
2024/05/02 03:42:20;;;;;;;4.07;2.20;;;;;;;15.56;64.26;94571.53;5341318;26;20049;-62
2024/05/02 03:44:45;;;;;;;4.10;2.55;;;;;;;15.77;62.74;94565.50;5341821;26;20005;-62
2024/05/02 03:47:10;;;;;;;3.78;2.40;;;;;;;15.64;63.06;94557.44;5340590;26;20551;-62
2024/05/02 03:49:36;;;;;;;3.35;2.50;;;;;;;15.76;63.79;94569.25;5341461;26;20016;-62
2024/05/02 03:52:01;;;;;;;4.13;2.28;;;;;;;15.68;63.12;94562.13;5341269;26;20075;-62
2024/05/02 03:54:26;;;;;;;4.40;2.45;;;;;;;15.68;63.08;94567.44;5342244;26;20755;-62
2024/05/02 03:56:52;;;;;;;4.63;2.78;;;;;;;15.58;64.28;94569.34;5340184;26;20024;-62
2024/05/02 03:59:17;;;;;;;3.30;2.25;;;;;;;15.49;63.31;94563.31;5344789;26;20016;-62
2024/05/02 04:01:42;;;;;;;4.28;2.78;;;;;;;15.68;64.22;94564.78;5336487;26;20456;-62
2024/05/02 04:04:08;;;;;;;4.40;2.55;;;;;;;15.88;62.03;94566.66;5324547;26;20041;-62
2024/05/02 04:06:33;;;;;;;13.15;2.55;;;;;;;15.85;63.83;94567.28;5341395;26;20705;-62
2024/05/02 04:08:58;;;;;;;5.30;2.70;;;;;;;15.96;62.68;94563.16;5341332;26;20015;-62
2024/05/02 04:11:24;;;;;;;4.35;2.95;;;;;;;15.56;64.46;94568.09;5341019;26;20016;-62
2024/05/02 04:13:49;;;;;;;4.38;2.40;;;;;;;15.68;63.84;94570.09;5362108;26;20001;-62
2024/05/02 04:16:14;;;;;;;3.90;2.60;;;;;;;15.64;65.04;94568.09;5341126;26;20008;-62
2024/05/02 04:18:40;;;;;;;4.55;3.05;;;;;;;15.72;64.28;94568.34;5340883;26;20021;-62
2024/05/02 04:21:05;;;;;;;8.18;3.13;;;;;;;15.72;64.36;94571.00;5340374;26;20308;-62
2024/05/02 04:23:32;;;;;;;4.45;2.63;;;;;;;15.46;65.56;94566.63;5340402;26;20429;-62
2024/05/02 04:25:57;;;;;;;5.13;2.90;;;;;;;15.97;62.57;94563.91;5341713;26;20073;-62
2024/05/02 04:28:22;;;;;;;4.80;2.75;;;;;;;15.80;64.19;94560.28;5334883;26;20457;-62
2024/05/02 04:30:48;;;;;;;7.10;3.40;;;;;;;15.75;65.27;94563.16;5340305;26;20019;-62
2024/05/02 04:33:13;;;;;;;4.47;2.97;;;;;;;15.95;63.77;94561.56;5340071;26;20023;-62
2024/05/02 04:35:38;;;;;;;5.28;2.83;;;;;;;15.99;63.58;94557.16;5343604;26;20449;-62
2024/05/02 04:38:04;;;;;;;5.20;3.28;;;;;;;16.05;63.82;94561.19;5340157;26;20009;-62
2024/05/02 04:40:29;;;;;;;5.43;2.90;;;;;;;16.09;63.72;94564.72;5340671;26;20017;-62
2024/05/02 04:42:54;;;;;;;6.43;2.70;;;;;;;15.88;65.27;94561.31;5340438;26;20411;-62
2024/05/02 04:45:20;;;;;;;5.63;3.05;;;;;;;15.81;65.46;94555.75;5339731;26;20239;-62
2024/05/02 04:47:45;;;;;;;4.40;2.92;;;;;;;15.97;63.92;94554.06;5341509;26;20004;-62
2024/05/02 04:50:10;;;;;;;4.43;2.77;;;;;;;16.09;64.15;94555.97;5339507;26;20025;-62
2024/05/02 04:52:35;;;;;;;3.88;2.72;;;;;;;16.28;64.16;94568.78;5340841;26;20719;-62
2024/05/02 04:55:01;;;;;;;5.00;2.90;;;;;;;16.23;63.38;94561.78;5340089;26;20489;-62
2024/05/02 04:57:27;;;;;;;6.00;2.90;;;;;;;16.41;63.27;94562.38;5340918;26;21078;-62
2024/05/02 04:59:52;;;;;;;5.28;2.95;;;;;;;16.48;62.54;94561.84;5341915;26;20085;-62
2024/05/02 05:02:18;;;;;;;7.32;3.40;;;;;;;16.38;62.21;94558.50;5340587;26;20016;-62
2024/05/02 05:04:43;;;;;;;5.97;3.20;;;;;;;16.28;63.39;94563.47;5340621;26;20364;-62
2024/05/02 05:07:08;;;;;;;4.75;2.85;;;;;;;16.11;64.66;94561.75;5339529;26;20015;-62
2024/05/02 05:09:34;;;;;;;4.70;2.65;;;;;;;16.21;63.94;94561.34;5334434;26;20082;-62
2024/05/02 05:11:59;;;;;;;4.93;2.87;;;;;;;16.35;64.18;94553.84;5335334;26;20036;-62
2024/05/02 05:14:24;;;;;;;7.47;3.03;;;;;;;16.58;63.29;94550.78;5340361;26;20280;-62
2024/05/02 05:16:50;;;;;;;4.60;2.70;;;;;;;16.54;62.37;94563.97;5340242;26;20016;-62
2024/05/02 05:19:15;;;;;;;2.40;2.20;;;;;;;16.70;63.45;94550.00;5340037;26;20085;-62
2024/05/02 05:21:40;;;;;;;7.13;3.58;;;;;;;16.45;63.69;94555.31;5339198;26;20013;-62
2024/05/02 05:24:06;;;;;;;4.57;2.67;;;;;;;16.27;62.87;94556.59;5340533;26;20009;-62
2024/05/02 05:26:31;;;;;;;4.45;2.55;;;;;;;16.45;63.78;94542.00;5338765;26;20239;-62
2024/05/02 05:28:56;;;;;;;4.38;2.72;;;;;;;16.54;62.93;94537.34;5340208;26;20851;-62
2024/05/02 05:31:22;;;;;;;4.75;2.70;;;;;;;16.57;61.92;94531.34;5334518;26;20051;-62
2024/05/02 05:33:47;;;;;;;7.20;2.78;;;;;;;16.70;62.23;94529.47;5338982;26;20013;-62
2024/05/02 05:36:15;;;;;;;8.85;3.33;;;;;;;16.58;63.07;94540.91;5339115;26;20009;-62
2024/05/02 05:38:40;;;;;;;7.65;3.40;;;;;;;16.77;63.53;94536.94;5338693;26;20526;-62
2024/05/02 05:41:06;;;;;;;8.60;2.70;;;;;;;16.78;62.67;94544.63;5340252;26;20024;-62
2024/05/02 05:43:32;;;;;;;4.82;2.78;;;;;;;16.94;61.66;94542.06;5339527;26;20017;-62
2024/05/02 05:45:57;;;;;;;4.28;2.95;;;;;;;17.16;60.77;94535.50;5339829;26;20016;-62
2024/05/02 05:48:23;;;;;;;5.38;2.55;;;;;;;16.96;62.90;94531.84;5339508;26;20015;-62
2024/05/02 05:50:48;;;;;;;3.42;2.42;;;;;;;16.86;63.11;94534.94;5339800;26;20020;-62
2024/05/02 05:53:13;;;;;;;7.57;2.85;;;;;;;17.34;60.63;94536.00;5338311;26;20019;-62
2024/05/02 05:55:39;;;;;;;15.10;3.40;;;;;;;17.48;61.25;94528.44;5340140;26;20494;-62
2024/05/02 05:58:07;;;;;;;5.32;2.67;;;;;;;17.37;61.87;94528.13;5339843;26;20086;-62
2024/05/02 06:00:34;;;;;;;5.30;2.90;;;;;;;17.35;61.50;94519.69;5343169;26;20083;-62
2024/05/02 06:02:59;;;;;;;11.15;3.78;;;;;;;17.54;62.49;94529.00;5338385;26;20020;-62
2024/05/02 06:05:24;;;;;;;6.97;2.85;;;;;;;17.88;60.54;94515.13;5338963;26;20012;-62
2024/05/02 06:07:50;;;;;;;3.92;2.75;;;;;;;17.88;61.20;94504.44;5340207;26;20020;-62
2024/05/02 06:10:15;;;;;;;3.72;2.90;;;;;;;18.07;60.43;94511.03;5338110;26;20028;-62
2024/05/02 06:12:40;;;;;;;4.18;2.70;;;;;;;18.09;60.61;94506.13;5339093;26;20020;-62
2024/05/02 06:15:06;;;;;;;6.30;2.80;;;;;;;17.93;59.51;94506.09;5338593;26;20011;-62
2024/05/02 06:17:32;;;;;;;10.50;2.92;;;;;;;18.00;60.88;94516.94;5339276;26;20363;-63
2024/05/02 06:19:57;;;;;;;4.97;2.63;;;;;;;18.02;60.16;94503.28;5339176;26;20025;-62
2024/05/02 06:22:23;;;;;;;3.22;2.58;;;;;;;18.41;60.05;94504.28;5336854;26;20064;-63
2024/05/02 06:24:48;;;;;;;7.40;2.35;;;;;;;18.64;57.84;94509.81;5338662;26;20083;-62
2024/05/02 06:27:13;;;;;;;4.88;2.50;;;;;;;18.78;59.08;94506.69;5339696;26;20009;-63
2024/05/02 06:29:39;;;;;;;5.75;2.58;;;;;;;18.95;58.12;94501.00;5339138;26;20005;-63
2024/05/02 06:32:04;;;;;;;4.25;2.30;;;;;;;19.13;58.54;94499.50;5338866;26;20016;-63
2024/05/02 06:34:29;;;;;;;6.95;2.83;;;;;;;19.10;57.11;94500.19;5339545;26;20025;-63
2024/05/02 06:36:55;;;;;;;6.53;2.67;;;;;;;18.88;57.37;94500.84;5338735;26;20005;-63
2024/05/02 06:39:20;;;;;;;3.53;2.28;;;;;;;18.85;58.47;94507.66;5338470;26;20396;-63
2024/05/02 06:41:45;;;;;;;9.05;2.60;;;;;;;18.67;59.79;94506.44;5336989;26;20353;-63
2024/05/02 06:44:11;;;;;;;3.72;2.22;;;;;;;18.60;60.20;94496.34;5338652;26;20009;-63
2024/05/02 06:46:36;;;;;;;3.17;2.40;;;;;;;18.66;59.54;94494.97;5334712;26;20004;-63
2024/05/02 06:49:01;;;;;;;6.18;2.60;;;;;;;18.74;59.98;94489.84;5338929;26;20009;-63
2024/05/02 06:51:26;;;;;;;4.03;2.58;;;;;;;18.68;58.07;94487.44;5340598;26;20005;-63
2024/05/02 06:53:52;;;;;;;3.60;2.28;;;;;;;18.78;58.77;94501.34;5336752;26;20009;-63
2024/05/02 06:56:17;;;;;;;3.45;2.30;;;;;;;18.77;59.18;94502.47;5338279;26;20013;-63
2024/05/02 06:58:42;;;;;;;2.60;1.83;;;;;;;18.74;57.97;94505.88;5335263;26;20013;-63
2024/05/02 07:01:08;;;;;;;4.43;2.33;;;;;;;18.74;57.85;94495.94;5336479;26;20374;-63
2024/05/02 07:03:33;;;;;;;4.65;2.50;;;;;;;18.78;57.82;94502.16;5335615;26;20009;-63
2024/05/02 07:05:58;;;;;;;4.50;2.17;;;;;;;18.94;57.69;94492.22;5335554;26;20019;-63
2024/05/02 07:08:24;;;;;;;11.60;2.53;;;;;;;19.05;57.51;94489.00;5335547;26;20044;-63
2024/05/02 07:10:49;;;;;;;4.70;2.50;;;;;;;19.34;56.52;94495.75;5337017;26;20016;-63
2024/05/02 07:13:14;;;;;;;3.22;2.22;;;;;;;19.37;55.65;94500.41;5340220;26;20005;-63
2024/05/02 07:15:40;;;;;;;4.47;2.05;;;;;;;19.14;56.27;94497.59;5336688;26;20013;-63
2024/05/02 07:18:06;;;;;;;3.63;2.17;;;;;;;19.38;55.84;94497.38;5336495;26;20108;-63
2024/05/02 07:20:31;;;;;;;4.40;2.30;;;;;;;19.20;56.04;94502.31;5335925;26;20452;-63
2024/05/02 07:22:57;;;;;;;2.92;2.20;;;;;;;19.69;55.81;94487.69;5336735;26;20013;-63
2024/05/02 07:25:26;;;;;;;6.25;2.28;;;;;;;20.08;55.29;94485.78;5336044;26;20021;-63
2024/05/02 07:27:52;;;;;;;9.52;2.63;;;;;;;20.12;54.27;94486.63;5338725;26;20856;-63
2024/05/02 07:30:17;;;;;;;3.67;2.05;;;;;;;19.81;54.25;94486.78;5335807;26;20024;-63
2024/05/02 07:32:43;;;;;;;2.92;1.98;;;;;;;20.07;54.73;94489.56;5337107;26;20418;-63
2024/05/02 07:35:08;;;;;;;3.50;2.22;;;;;;;20.24;53.86;94481.09;5336491;26;20024;-63
2024/05/02 07:37:33;;;;;;;5.88;2.20;;;;;;;20.58;52.88;94470.56;5339546;26;20091;-63
2024/05/02 07:39:58;;;;;;;5.20;2.00;;;;;;;20.59;52.56;94474.78;5337748;26;20005;-63
2024/05/02 07:42:24;;;;;;;2.97;1.98;;;;;;;20.56;52.89;94478.22;5340011;26;20019;-63
2024/05/02 07:44:49;;;;;;;4.15;2.00;;;;;;;20.77;52.51;94471.63;5340463;26;20005;-62
2024/05/02 07:47:14;;;;;;;9.35;1.60;;;;;;;20.92;52.13;94473.38;5340599;26;20009;-63
2024/05/02 07:49:40;;;;;;;9.50;1.70;;;;;;;21.17;51.95;94469.13;5339788;26;20000;-63
2024/05/02 07:52:05;;;;;;;3.47;1.90;;;;;;;21.07;51.09;94469.00;5339321;26;20012;-63
2024/05/02 07:54:30;;;;;;;10.30;1.80;;;;;;;20.86;51.35;94470.25;5339560;26;20019;-63
2024/05/02 07:56:55;;;;;;;7.47;2.27;;;;;;;20.81;52.14;94469.78;5339373;26;20892;-63
2024/05/02 07:59:21;;;;;;;4.75;1.75;;;;;;;21.33;52.52;94477.06;5338485;26;20283;-63
2024/05/02 08:01:46;;;;;;;2.43;1.60;;;;;;;21.35;50.69;94482.84;5338332;26;20012;-63
2024/05/02 08:04:11;;;;;;;2.23;1.87;;;;;;;21.41;50.02;94480.59;5338403;26;20586;-63
2024/05/02 08:06:38;;;;;;;5.50;1.98;;;;;;;21.78;50.50;94486.81;5337968;26;20303;-63
2024/05/02 08:09:04;;;;;;;3.17;1.75;;;;;;;21.88;50.07;94479.25;5339367;26;20001;-63
2024/05/02 08:11:29;;;;;;;6.60;2.70;;;;;;;21.82;50.54;94480.72;5336826;26;20101;-63
2024/05/02 08:13:54;;;;;;;4.10;2.22;;;;;;;22.09;49.88;94482.19;5340132;26;20082;-63
2024/05/02 08:16:20;;;;;;;3.78;1.98;;;;;;;21.59;50.22;94486.19;5341114;26;20068;-63
2024/05/02 08:18:47;;;;;;;9.60;1.77;;;;;;;21.71;51.76;94475.25;5338050;26;20012;-63
2024/05/02 08:21:12;;;;;;;4.35;1.73;;;;;;;22.23;49.80;94476.19;5340010;26;20028;-63
2024/05/02 08:23:38;;;;;;;7.30;1.70;;;;;;;22.70;49.00;94480.84;5338193;26;20000;-63
2024/05/02 08:26:03;;;;;;;5.35;1.65;;;;;;;22.73;48.91;94479.34;5339395;26;20020;-63
2024/05/02 08:28:28;;;;;;;5.97;2.15;;;;;;;23.20;48.23;94475.09;5338181;26;20016;-64
2024/05/02 08:30:54;;;;;;;2.83;1.70;;;;;;;22.46;47.41;94476.03;5340226;26;20009;-63
2024/05/02 08:33:19;;;;;;;1.42;1.27;;;;;;;21.91;48.38;94475.84;5339725;26;20565;-63
2024/05/02 08:35:45;;;;;;;4.70;1.58;;;;;;;21.32;50.55;94474.72;5367165;26;20008;-63
2024/05/02 08:38:13;;;;;;;8.03;2.23;;;;;;;22.43;50.35;94474.09;5346003;26;20342;-63
2024/05/02 08:40:38;;;;;;;2.67;1.70;;;;;;;22.87;46.04;94478.69;5339052;26;20270;-64
2024/05/02 08:43:04;;;;;;;2.05;1.13;;;;;;;23.63;46.57;94468.00;5340161;26;20005;-63
2024/05/02 08:45:29;;;;;;;3.70;1.48;;;;;;;23.91;44.24;94469.28;5340621;26;20037;-63
2024/05/02 08:47:56;;;;;;;4.38;1.50;;;;;;;23.98;43.38;94470.06;5339404;26;20009;-64
2024/05/02 08:50:22;;;;;;;3.85;1.15;;;;;;;23.68;44.33;94467.66;5336845;26;20005;-63
2024/05/02 08:52:52;;;;;;;1.15;1.05;;;;;;;23.33;46.39;94473.59;5337538;26;20017;-64
2024/05/02 08:55:17;;;;;;;3.58;1.30;;;;;;;22.58;44.75;94483.81;5337035;26;20094;-64
2024/05/02 08:57:45;;;;;;;1.50;0.80;;;;;;;22.33;44.78;94480.16;5338188;26;20017;-63
2024/05/02 09:00:11;;;;;;;1.73;1.02;;;;;;;21.96;45.95;94475.53;5347996;26;20082;-63
2024/05/02 09:02:37;;;;;;;1.65;0.93;;;;;;;22.16;46.42;94474.22;5339023;26;20009;-63
2024/05/02 09:05:02;;;;;;;4.93;1.50;;;;;;;22.71;47.13;94477.03;5335329;26;20803;-63
2024/05/02 09:07:28;;;;;;;3.42;1.15;;;;;;;22.37;46.54;94473.63;5333370;26;20008;-63
2024/05/02 09:09:53;;;;;;;4.87;1.20;;;;;;;22.70;47.82;94475.47;5340675;26;20089;-63
2024/05/02 09:12:19;;;;;;;2.38;1.63;;;;;;;23.23;46.54;94474.31;5339521;26;20287;-63
2024/05/02 09:14:45;;;;;;;3.22;1.65;;;;;;;23.44;46.27;94479.06;5338269;26;20443;-63
2024/05/02 09:17:10;;;;;;;2.60;1.77;;;;;;;23.20;47.01;94480.47;5338486;26;20021;-63
2024/05/02 09:19:36;;;;;;;4.90;1.67;;;;;;;23.77;46.04;94478.09;5335729;26;20001;-63
2024/05/02 09:22:03;;;;;;;3.33;1.63;;;;;;;24.15;45.72;94475.91;5335709;26;20016;-63
2024/05/02 09:24:30;;;;;;;5.88;1.40;;;;;;;24.08;44.93;94473.94;5339158;26;20010;-63
2024/05/02 09:26:55;;;;;;;3.17;1.60;;;;;;;24.50;44.46;94477.91;5336635;26;20013;-63
2024/05/02 09:29:24;;;;;;;3.35;1.30;;;;;;;23.08;45.70;94486.91;5340862;26;20016;-63
2024/05/02 09:31:49;;;;;;;1.55;0.82;;;;;;;23.49;45.12;94476.00;5337893;26;20453;-63
2024/05/02 09:34:14;;;;;;;1.42;1.00;;;;;;;24.13;45.06;94465.47;5341613;26;20020;-63
2024/05/02 09:36:43;;;;;;;1.40;0.98;;;;;;;25.20;43.20;94472.88;5340251;26;20012;-63
2024/05/02 09:39:10;;;;;;;2.22;1.08;;;;;;;25.82;41.71;94458.81;5336059;26;20008;-63
2024/05/02 09:41:44;;;;;;;4.82;0.80;;;;;;;26.21;40.66;94472.16;5333218;26;20004;-63
2024/05/02 09:44:15;;;;;;;2.17;1.23;;;;;;;25.80;39.71;94470.03;5331373;26;20057;-63
2024/05/02 09:46:50;;;;;;;3.10;1.15;;;;;;;24.66;41.31;94464.78;5336284;26;20015;-63
2024/05/02 09:49:17;;;;;;;3.40;1.42;;;;;;;25.35;43.22;94465.53;5340514;26;20008;-63
2024/05/02 09:51:45;;;;;;;5.15;1.17;;;;;;;26.25;40.09;94467.47;5326841;26;20005;-63
2024/05/02 09:54:10;;;;;;;4.40;0.80;;;;;;;26.62;40.17;94459.91;5336030;26;20005;-63
2024/05/02 09:56:36;;;;;;;1.58;0.80;;;;;;;26.45;38.58;94464.31;5337875;26;20023;-63
2024/05/02 09:59:05;;;;;;;2.08;1.08;;;;;;;26.90;39.06;94450.81;5342937;26;20016;-63
2024/05/02 10:01:31;;;;;;;6.97;1.10;;;;;;;25.57;41.25;94464.28;5345844;26;20004;-64
2024/05/02 10:03:59;;;;;;;2.33;1.33;;;;;;;26.16;41.46;94460.97;5335242;26;20019;-64
2024/05/02 10:06:25;;;;;;;1.88;1.00;;;;;;;26.03;40.09;94466.06;5333768;26;20008;-63
2024/05/02 10:08:51;;;;;;;2.33;1.35;;;;;;;25.21;42.39;94456.31;5330440;26;20020;-63
2024/05/02 10:11:17;;;;;;;0.95;0.90;;;;;;;24.82;43.22;94461.72;5340466;26;20004;-63
2024/05/02 10:13:56;;;;;;;2.22;1.00;;;;;;;25.30;43.03;94458.59;5339725;26;20013;-63
2024/05/02 10:16:24;;;;;;;3.58;1.05;;;;;;;25.95;40.99;94453.75;5337673;26;20460;-63
2024/05/02 10:18:55;;;;;;;2.55;1.10;;;;;;;25.98;40.92;94450.25;5338760;26;20340;-63
2024/05/02 10:21:23;;;;;;;0.93;0.82;;;;;;;25.46;42.50;94450.06;5328396;26;20055;-63
2024/05/02 10:23:49;;;;;;;6.47;1.10;;;;;;;25.57;41.37;94456.19;5331238;26;20020;-63
2024/05/02 10:26:15;;;;;;;7.40;0.85;;;;;;;26.26;39.73;94455.50;5338028;26;20008;-63
2024/05/02 10:28:41;;;;;;;2.17;0.85;;;;;;;26.09;38.48;94451.72;5339311;26;20013;-63
2024/05/02 10:31:09;;;;;;;4.90;1.17;;;;;;;25.62;40.42;94439.56;5336523;26;20012;-63
2024/05/02 10:33:36;;;;;;;0.95;0.70;;;;;;;26.17;40.18;94438.94;5335058;26;20009;-63
2024/05/02 10:36:12;;;;;;;1.10;0.50;;;;;;;26.47;37.19;94441.09;5339763;26;20445;-63
2024/05/02 10:38:38;;;;;;;0.75;0.28;;;;;;;25.12;36.78;94445.13;5339437;26;20015;-63
2024/05/02 10:41:05;;;;;;;0.22;0.08;;;;;;;24.65;36.50;94433.59;5334202;26;20009;-63
2024/05/02 10:43:32;;;;;;;2.45;0.22;;;;;;;24.32;35.68;94440.84;5335651;26;20005;-63
2024/05/02 10:46:00;;;;;;;1.27;0.52;;;;;;;23.80;38.08;94426.91;5339763;26;20013;-63
2024/05/02 10:48:25;;;;;;;0.20;0.17;;;;;;;23.96;37.60;94428.50;5333714;26;20074;-63
2024/05/02 10:50:51;;;;;;;0.50;0.30;;;;;;;23.86;37.68;94435.41;5330369;26;20025;-63
2024/05/02 10:53:16;;;;;;;1.17;0.20;;;;;;;23.54;38.10;94427.94;5337647;26;20288;-63
2024/05/02 10:55:43;;;;;;;1.35;0.40;;;;;;;23.68;37.35;94435.34;5334458;26;20009;-63
2024/05/02 10:58:08;;;;;;;0.05;0.05;;;;;;;23.75;37.01;94429.97;5338235;26;20017;-63
2024/05/02 11:00:33;;;;;;;0.57;0.28;;;;;;;24.55;36.67;94434.38;5339382;26;20010;-63
2024/05/02 11:02:58;;;;;;;1.85;0.10;;;;;;;24.72;35.73;94420.13;5338109;26;20009;-63
2024/05/02 11:05:24;;;;;;;2.25;0.30;;;;;;;25.08;35.53;94430.88;5338771;26;20456;-63
2024/05/02 11:07:56;;;;;;;0.67;0.27;;;;;;;25.77;35.96;94422.16;5335907;26;20024;-64
2024/05/02 11:10:24;;;;;;;0.20;0.20;;;;;;;26.59;31.98;94432.50;5331782;26;20248;-63
2024/05/02 11:12:49;;;;;;;1.08;0.52;;;;;;;26.63;33.48;94428.97;5338356;26;20091;-63
2024/05/02 11:15:15;;;;;;;0.55;0.20;;;;;;;25.27;34.56;94421.56;5334281;26;20009;-63
2024/05/02 11:17:42;;;;;;;0.30;0.22;;;;;;;27.28;33.10;94419.13;5334410;26;20044;-64
2024/05/02 11:20:09;;;;;;;1.20;0.30;;;;;;;29.10;31.48;94411.91;5336803;26;20211;-64
2024/05/02 11:22:44;;;;;;;0.95;0.20;;;;;;;30.40;30.47;94414.34;5346098;26;20456;-64
2024/05/02 11:25:11;;;;;;;0.28;0.20;;;;;;;30.74;27.75;94410.44;5333542;26;20001;-64
2024/05/02 11:27:53;;;;;;;0.63;0.17;;;;;;;30.54;27.25;94409.75;5343295;26;20013;-64